Latest Weather Observations for Outer Harbor (Black Pole)

IDS60801

Issued at 12:02 pm CDT Saturday 28 March 2015 (issued every 30 minutes, with the page automatically refreshed every 10 minutes)

About weather observations | Map of weather stations | Latest weather observations for SA | Other Formats
Station Details ID: 023052 Name: BLACK POLE Lat: -34.73 Lon: 138.47 Height: 8.0 m
Data from the previous 72 hours. | See also: Recent months for locations in South Australia
Date/Time
CDT
Temp
°C
App
Temp
°C
Dew
Point
Rel
Hum
%
Delta-T
°C
Wind Press
QNH
hPa
Press
MSL
hPa
Rain
since 9 am
mm
Dir
 
Spd
km/h
Gust
km/h
Spd
kts
Gust
kts
28/12:00pm - - - - - NE 11 17 6 9 - - -
28/11:30am - - - - - NNE 13 19 7 10 - - -
28/11:00am - - - - - NE 17 20 9 11 - - -
28/10:30am - - - - - NE 19 24 10 13 - - -
28/10:00am - - - - - NE 11 17 6 9 - - -
28/09:30am - - - - - NE 7 9 4 5 - - -
28/09:00am - - - - - NE 7 11 4 6 - - -
28/08:30am - - - - - ENE 11 13 6 7 - - -
28/08:00am - - - - - ENE 13 15 7 8 - - -
28/07:30am - - - - - ENE 11 15 6 8 - - -
28/07:00am - - - - - ENE 9 13 5 7 - - -
28/06:30am - - - - - NE 11 15 6 8 - - -
28/06:00am - - - - - NE 9 11 5 6 - - -
28/05:30am - - - - - NE 7 9 4 5 - - -
28/05:00am - - - - - NNE 7 9 4 5 - - -
28/04:30am - - - - - N 9 13 5 7 - - -
28/04:00am - - - - - NNE 7 9 4 5 - - -
28/03:30am - - - - - ENE 7 9 4 5 - - -
28/03:00am - - - - - ESE 9 13 5 7 - - -
28/02:30am - - - - - ESE 15 19 8 10 - - -
28/02:00am - - - - - ESE 19 20 10 11 - - -
28/01:30am - - - - - ESE 17 19 9 10 - - -
28/01:00am - - - - - ESE 19 24 10 13 - - -
28/12:30am - - - - - SE 20 24 11 13 - - -
28/12:00am - - - - - SE 17 20 9 11 - - -
 
Date/Time
CDT
Temp
°C
App
Temp
°C
Dew
Point
Rel
Hum
%
Delta-T
°C
Wind Press
QNH
hPa
Press
MSL
hPa
Rain
since 9 am
mm
Dir
 
Spd
km/h
Gust
km/h
Spd
kts
Gust
kts
27/11:30pm - - - - - SE 20 24 11 13 - - -
27/11:00pm - - - - - SE 19 22 10 12 - - -
27/10:30pm - - - - - SE 17 20 9 11 - - -
27/10:00pm - - - - - SSE 15 20 8 11 - - -
27/09:30pm - - - - - S 17 20 9 11 - - -
27/09:00pm - - - - - S 19 24 10 13 - - -
27/08:30pm - - - - - S 20 28 11 15 - - -
27/08:00pm - - - - - S 24 30 13 16 - - -
27/07:30pm - - - - - S 24 30 13 16 - - -
27/07:00pm - - - - - S 28 32 15 17 - - -
27/06:30pm - - - - - SSW 24 30 13 16 - - -
27/06:00pm - - - - - SSW 24 30 13 16 - - -
27/05:30pm - - - - - SSW 24 30 13 16 - - -
27/05:00pm - - - - - SSW 20 26 11 14 - - -
27/04:30pm - - - - - SW 22 28 12 15 - - -
27/04:00pm - - - - - SW 22 28 12 15 - - -
27/03:30pm - - - - - SW 22 26 12 14 - - -
27/03:00pm - - - - - WSW 19 24 10 13 - - -
27/02:30pm - - - - - WSW 17 22 9 12 - - -
27/02:00pm - - - - - WSW 17 20 9 11 - - -
27/01:30pm - - - - - WSW 11 17 6 9 - - -
27/01:00pm - - - - - WSW 13 17 7 9 - - -
27/12:30pm - - - - - WSW 15 20 8 11 - - -
27/12:00pm - - - - - NW 7 13 4 7 - - -
27/11:30am - - - - - NNW 11 15 6 8 - - -
27/11:00am - - - - - NW 7 11 4 6 - - -
27/10:30am - - - - - N 6 11 3 6 - - -
27/10:00am - - - - - N 7 11 4 6 - - -
27/09:30am - - - - - N 9 13 5 7 - - -
27/09:00am - - - - - N 15 17 8 9 - - -
27/08:30am - - - - - N 7 15 4 8 - - -
27/08:00am - - - - - N 17 22 9 12 - - -
27/07:30am - - - - - N 9 13 5 7 - - -
27/07:00am - - - - - NE 11 17 6 9 - - -
27/06:30am - - - - - NNE 11 17 6 9 - - -
27/06:00am - - - - - ENE 7 13 4 7 - - -
27/05:30am - - - - - SE 7 15 4 8 - - -
27/05:00am - - - - - E 6 9 3 5 - - -
27/04:30am - - - - - ENE 9 13 5 7 - - -
27/04:00am - - - - - ESE 13 15 7 8 - - -
27/03:30am - - - - - SE 15 20 8 11 - - -
27/03:00am - - - - - SSE 19 24 10 13 - - -
27/02:30am - - - - - SE 4 7 2 4 - - -
27/02:00am - - - - - SE 15 20 8 11 - - -
27/01:30am - - - - - SSE 26 33 14 18 - - -
27/01:29am - - - - - SSE 26 33 14 18 - - -
27/01:00am - - - - - S 37 44 20 24 - - -
27/12:30am - - - - - SSW 20 26 11 14 - - -
27/12:00am - - - - - SE 19 24 10 13 - - -
 
Date/Time
CDT
Temp
°C
App
Temp
°C
Dew
Point
Rel
Hum
%
Delta-T
°C
Wind Press
QNH
hPa
Press
MSL
hPa
Rain
since 9 am
mm
Dir
 
Spd
km/h
Gust
km/h
Spd
kts
Gust
kts
26/11:30pm - - - - - SW 24 33 13 18 - - -
26/11:00pm - - - - - SW 20 26 11 14 - - -
26/10:30pm - - - - - SW 33 41 18 22 - - -
26/10:00pm - - - - - S 28 37 15 20 - - -
26/09:30pm - - - - - SSW 32 39 17 21 - - -
26/09:00pm - - - - - SSW 32 39 17 21 - - -
26/08:30pm - - - - - SSW 35 43 19 23 - - -
26/08:00pm - - - - - SW 28 35 15 19 - - -
26/07:30pm - - - - - SW 28 37 15 20 - - -
26/07:00pm - - - - - SSW 32 39 17 21 - - -
26/06:30pm - - - - - SW 30 39 16 21 - - -
26/06:00pm - - - - - SW 28 35 15 19 - - -
26/05:30pm - - - - - SW 32 39 17 21 - - -
26/05:00pm - - - - - SSW 26 32 14 17 - - -
26/04:30pm - - - - - SW 26 32 14 17 - - -
26/04:00pm - - - - - SW 26 33 14 18 - - -
26/03:30pm - - - - - WSW 24 32 13 17 - - -
26/03:00pm - - - - - WSW 30 39 16 21 - - -
26/02:30pm - - - - - WSW 26 32 14 17 - - -
26/02:00pm - - - - - SW 26 33 14 18 - - -
26/01:30pm - - - - - WSW 30 39 16 21 - - -
26/01:00pm - - - - - SW 32 43 17 23 - - -
26/12:30pm - - - - - SW 32 43 17 23 - - -
26/12:00pm - - - - - SW 32 39 17 21 - - -
26/11:30am - - - - - SW 32 39 17 21 - - -
26/11:00am - - - - - SW 32 39 17 21 - - -
26/10:30am - - - - - SW 35 44 19 24 - - -
26/10:00am - - - - - SW 33 43 18 23 - - -
26/09:54am - - - - - SW 32 50 17 27 - - -
26/09:30am - - - - - SW 35 43 19 23 - - -
26/09:00am - - - - - SW 37 48 20 26 - - -
26/08:30am - - - - - SW 41 54 22 29 - - -
26/08:00am - - - - - SW 41 52 22 28 - - -
26/07:30am - - - - - SW 39 50 21 27 - - -
26/07:00am - - - - - SW 37 48 20 26 - - -
26/06:46am - - - - - WSW 35 54 19 29 - - -
26/06:30am - - - - - SW 37 48 20 26 - - -
26/06:00am - - - - - SW 41 50 22 27 - - -
26/05:30am - - - - - WSW 39 50 21 27 - - -
26/05:00am - - - - - SW 39 50 21 27 - - -
26/04:30am - - - - - SW 43 50 23 27 - - -
26/04:00am - - - - - SW 43 52 23 28 - - -
26/03:30am - - - - - SW 41 54 22 29 - - -
26/03:00am - - - - - SW 41 52 22 28 - - -
26/02:30am - - - - - SW 43 54 23 29 - - -
26/02:00am - - - - - SW 41 54 22 29 - - -
26/01:30am - - - - - SW 41 50 22 27 - - -
26/01:00am - - - - - WSW 46 56 25 30 - - -
26/12:30am - - - - - SW 43 52 23 28 - - -
26/12:00am - - - - - SW 39 48 21 26 - - -
 
Date/Time
CDT
Temp
°C
App
Temp
°C
Dew
Point
Rel
Hum
%
Delta-T
°C
Wind Press
QNH
hPa
Press
MSL
hPa
Rain
since 9 am
mm
Dir
 
Spd
km/h
Gust
km/h
Spd
kts
Gust
kts
25/11:30pm - - - - - SW 41 48 22 26 - - -
25/11:00pm - - - - - SW 37 50 20 27 - - -
25/10:30pm - - - - - SW 41 52 22 28 - - -
25/10:00pm - - - - - SW 39 54 21 29 - - -
25/09:30pm - - - - - SW 39 50 21 27 - - -
25/09:00pm - - - - - SW 46 56 25 30 - - -
25/08:30pm - - - - - SW 37 48 20 26 - - -
25/08:00pm - - - - - SW 35 46 19 25 - - -
25/07:36pm - - - - - SW 41 65 22 35 - - -
25/07:30pm - - - - - SW 44 59 24 32 - - -
25/07:00pm - - - - - SW 46 63 25 34 - - -
25/06:31pm - - - - - WSW 50 69 27 37 - - -
25/06:30pm - - - - - WSW 52 69 28 37 - - -
25/06:00pm - - - - - W 50 65 27 35 - - -
25/05:37pm - - - - - WNW 39 61 21 33 - - -
25/05:30pm - - - - - WNW 35 46 19 25 - - -
25/05:00pm - - - - - NW 33 43 18 23 - - -
25/04:30pm - - - - - WNW 33 41 18 22 - - -
25/04:00pm - - - - - WNW 35 43 19 23 - - -
25/03:30pm - - - - - WNW 37 43 20 23 - - -
25/03:00pm - - - - - WNW 33 43 18 23 - - -
25/02:30pm - - - - - WNW 32 39 17 21 - - -
25/02:00pm - - - - - WNW 26 32 14 17 - - -
25/01:30pm - - - - - WNW 32 39 17 21 - - -
25/01:00pm - - - - - NW 28 39 15 21 - - -
25/12:30pm - - - - - NNW 19 26 10 14 - - -

Other Formats:

Comma delimited format used in spreadsheet applications
http://www.bom.gov.au/fwo/IDS60801/IDS60801.95675.axf

JavaScript Object Notation format (JSON) in row-major order
http://www.bom.gov.au/fwo/IDS60801/IDS60801.95675.json